sensor_id;sensor_type;location;lat;lon;timestamp;P1;P2;P0
47741;PMS5003;33504;52.066;6.096;2023-07-08T00:00:45;15;15;
47741;PMS5003;33504;52.066;6.096;2023-07-08T00:03:12;16;15;
47741;PMS5003;33504;52.066;6.096;2023-07-08T00:05:40;16;15;
47741;PMS5003;33504;52.066;6.096;2023-07-08T00:08:07;16;15;
47741;PMS5003;33504;52.066;6.096;2023-07-08T00:10:37;14;13;
47741;PMS5003;33504;52.066;6.096;2023-07-08T00:13:05;16;16;
47741;PMS5003;33504;52.066;6.096;2023-07-08T00:15:32;13;12;
47741;PMS5003;33504;52.066;6.096;2023-07-08T00:18:00;14;13;
47741;PMS5003;33504;52.066;6.096;2023-07-08T00:20:30;16;15;
47741;PMS5003;33504;52.066;6.096;2023-07-08T00:22:59;17;16;
47741;PMS5003;33504;52.066;6.096;2023-07-08T00:25:26;16;15;
47741;PMS5003;33504;52.066;6.096;2023-07-08T00:27:53;15;15;
47741;PMS5003;33504;52.066;6.096;2023-07-08T00:30:21;15;15;
47741;PMS5003;33504;52.066;6.096;2023-07-08T00:32:50;15;15;
47741;PMS5003;33504;52.066;6.096;2023-07-08T00:35:17;17;16;
47741;PMS5003;33504;52.066;6.096;2023-07-08T00:37:44;15;15;
47741;PMS5003;33504;52.066;6.096;2023-07-08T00:40:13;16;16;
47741;PMS5003;33504;52.066;6.096;2023-07-08T00:42:42;14;14;
47741;PMS5003;33504;52.066;6.096;2023-07-08T00:45:14;17;16;
47741;PMS5003;33504;52.066;6.096;2023-07-08T00:47:48;15;15;
47741;PMS5003;33504;52.066;6.096;2023-07-08T00:50:15;15;15;
47741;PMS5003;33504;52.066;6.096;2023-07-08T00:52:44;17;15;
47741;PMS5003;33504;52.066;6.096;2023-07-08T00:55:11;15;15;
47741;PMS5003;33504;52.066;6.096;2023-07-08T00:57:39;15;15;
47741;PMS5003;33504;52.066;6.096;2023-07-08T01:00:11;17;17;
47741;PMS5003;33504;52.066;6.096;2023-07-08T01:02:41;16;16;
47741;PMS5003;33504;52.066;6.096;2023-07-08T01:05:13;15;15;
47741;PMS5003;33504;52.066;6.096;2023-07-08T01:07:42;12;12;
47741;PMS5003;33504;52.066;6.096;2023-07-08T01:10:14;15;14;
47741;PMS5003;33504;52.066;6.096;2023-07-08T01:12:47;17;17;
47741;PMS5003;33504;52.066;6.096;2023-07-08T01:15:16;16;15;
47741;PMS5003;33504;52.066;6.096;2023-07-08T01:17:44;17;16;
47741;PMS5003;33504;52.066;6.096;2023-07-08T01:20:12;16;15;
47741;PMS5003;33504;52.066;6.096;2023-07-08T01:22:39;15;15;
47741;PMS5003;33504;52.066;6.096;2023-07-08T01:25:07;18;16;
47741;PMS5003;33504;52.066;6.096;2023-07-08T01:27:36;15;15;
47741;PMS5003;33504;52.066;6.096;2023-07-08T01:30:07;18;16;
47741;PMS5003;33504;52.066;6.096;2023-07-08T01:32:37;16;16;
47741;PMS5003;33504;52.066;6.096;2023-07-08T01:35:09;16;16;
47741;PMS5003;33504;52.066;6.096;2023-07-08T01:37:40;16;15;
47741;PMS5003;33504;52.066;6.096;2023-07-08T01:40:15;16;16;
47741;PMS5003;33504;52.066;6.096;2023-07-08T01:42:48;14;14;
47741;PMS5003;33504;52.066;6.096;2023-07-08T01:45:17;17;17;
47741;PMS5003;33504;52.066;6.096;2023-07-08T01:47:46;16;16;
47741;PMS5003;33504;52.066;6.096;2023-07-08T01:50:16;17;16;
47741;PMS5003;33504;52.066;6.096;2023-07-08T01:52:45;18;18;
47741;PMS5003;33504;52.066;6.096;2023-07-08T01:55:12;19;18;
47741;PMS5003;33504;52.066;6.096;2023-07-08T01:57:39;19;18;
47741;PMS5003;33504;52.066;6.096;2023-07-08T02:00:06;22;21;
47741;PMS5003;33504;52.066;6.096;2023-07-08T02:02:34;21;20;
47741;PMS5003;33504;52.066;6.096;2023-07-08T02:05:00;28;25;
47741;PMS5003;33504;52.066;6.096;2023-07-08T02:07:28;24;23;
47741;PMS5003;33504;52.066;6.096;2023-07-08T02:09:54;29;28;
47741;PMS5003;33504;52.066;6.096;2023-07-08T02:12:22;22;21;
47741;PMS5003;33504;52.066;6.096;2023-07-08T02:14:49;34;34;
47741;PMS5003;33504;52.066;6.096;2023-07-08T02:17:16;24;24;
47741;PMS5003;33504;52.066;6.096;2023-07-08T02:19:43;23;23;
47741;PMS5003;33504;52.066;6.096;2023-07-08T02:22:10;37;37;
47741;PMS5003;33504;52.066;6.096;2023-07-08T02:24:37;21;21;
47741;PMS5003;33504;52.066;6.096;2023-07-08T02:27:05;16;16;
47741;PMS5003;33504;52.066;6.096;2023-07-08T02:29:31;18;16;
47741;PMS5003;33504;52.066;6.096;2023-07-08T02:31:58;37;37;
47741;PMS5003;33504;52.066;6.096;2023-07-08T02:34:26;22;22;
47741;PMS5003;33504;52.066;6.096;2023-07-08T02:36:52;13;13;
47741;PMS5003;33504;52.066;6.096;2023-07-08T02:39:19;17;17;
47741;PMS5003;33504;52.066;6.096;2023-07-08T02:41:45;18;17;
47741;PMS5003;33504;52.066;6.096;2023-07-08T02:44:12;17;16;
47741;PMS5003;33504;52.066;6.096;2023-07-08T02:46:39;18;16;
47741;PMS5003;33504;52.066;6.096;2023-07-08T02:49:06;14;14;
47741;PMS5003;33504;52.066;6.096;2023-07-08T02:51:34;15;15;
47741;PMS5003;33504;52.066;6.096;2023-07-08T02:54:01;14;14;
47741;PMS5003;33504;52.066;6.096;2023-07-08T02:56:28;15;15;
47741;PMS5003;33504;52.066;6.096;2023-07-08T02:58:55;16;16;
47741;PMS5003;33504;52.066;6.096;2023-07-08T03:01:22;15;15;
47741;PMS5003;33504;52.066;6.096;2023-07-08T03:03:49;15;14;
47741;PMS5003;33504;52.066;6.096;2023-07-08T03:06:16;18;17;
47741;PMS5003;33504;52.066;6.096;2023-07-08T03:08:42;17;17;
47741;PMS5003;33504;52.066;6.096;2023-07-08T03:11:09;16;16;
47741;PMS5003;33504;52.066;6.096;2023-07-08T03:13:38;19;19;
47741;PMS5003;33504;52.066;6.096;2023-07-08T03:16:05;15;14;
47741;PMS5003;33504;52.066;6.096;2023-07-08T03:18:32;16;16;
47741;PMS5003;33504;52.066;6.096;2023-07-08T03:20:59;17;17;
47741;PMS5003;33504;52.066;6.096;2023-07-08T03:23:27;18;18;
47741;PMS5003;33504;52.066;6.096;2023-07-08T03:25:54;16;16;
47741;PMS5003;33504;52.066;6.096;2023-07-08T03:28:21;24;23;
47741;PMS5003;33504;52.066;6.096;2023-07-08T03:30:51;21;20;
47741;PMS5003;33504;52.066;6.096;2023-07-08T03:33:19;19;19;
47741;PMS5003;33504;52.066;6.096;2023-07-08T03:35:47;27;27;
47741;PMS5003;33504;52.066;6.096;2023-07-08T03:38:15;27;26;
47741;PMS5003;33504;52.066;6.096;2023-07-08T03:40:42;16;15;
47741;PMS5003;33504;52.066;6.096;2023-07-08T03:43:08;15;15;
47741;PMS5003;33504;52.066;6.096;2023-07-08T03:45:35;15;15;
47741;PMS5003;33504;52.066;6.096;2023-07-08T03:48:02;15;15;
47741;PMS5003;33504;52.066;6.096;2023-07-08T03:50:29;15;15;
47741;PMS5003;33504;52.066;6.096;2023-07-08T03:52:56;16;15;
47741;PMS5003;33504;52.066;6.096;2023-07-08T03:55:23;15;15;
47741;PMS5003;33504;52.066;6.096;2023-07-08T03:57:51;16;16;
47741;PMS5003;33504;52.066;6.096;2023-07-08T04:00:18;15;15;
47741;PMS5003;33504;52.066;6.096;2023-07-08T04:02:46;17;17;
47741;PMS5003;33504;52.066;6.096;2023-07-08T04:05:14;15;15;
47741;PMS5003;33504;52.066;6.096;2023-07-08T04:07:42;14;14;
47741;PMS5003;33504;52.066;6.096;2023-07-08T04:10:09;15;15;
47741;PMS5003;33504;52.066;6.096;2023-07-08T04:12:37;16;16;
47741;PMS5003;33504;52.066;6.096;2023-07-08T04:15:06;18;17;
47741;PMS5003;33504;52.066;6.096;2023-07-08T04:17:35;16;15;
47741;PMS5003;33504;52.066;6.096;2023-07-08T04:20:05;16;16;
47741;PMS5003;33504;52.066;6.096;2023-07-08T04:22:34;17;16;
47741;PMS5003;33504;52.066;6.096;2023-07-08T04:25:01;17;17;
47741;PMS5003;33504;52.066;6.096;2023-07-08T04:27:28;16;16;
47741;PMS5003;33504;52.066;6.096;2023-07-08T04:29:54;17;16;
47741;PMS5003;33504;52.066;6.096;2023-07-08T04:32:21;23;23;
47741;PMS5003;33504;52.066;6.096;2023-07-08T04:34:48;19;18;
47741;PMS5003;33504;52.066;6.096;2023-07-08T04:37:15;27;26;
47741;PMS5003;33504;52.066;6.096;2023-07-08T04:39:42;22;21;
47741;PMS5003;33504;52.066;6.096;2023-07-08T04:42:08;18;18;
47741;PMS5003;33504;52.066;6.096;2023-07-08T04:44:35;19;19;
47741;PMS5003;33504;52.066;6.096;2023-07-08T04:47:02;19;19;
47741;PMS5003;33504;52.066;6.096;2023-07-08T04:49:29;18;16;
47741;PMS5003;33504;52.066;6.096;2023-07-08T04:51:56;19;19;
47741;PMS5003;33504;52.066;6.096;2023-07-08T04:54:23;39;38;
47741;PMS5003;33504;52.066;6.096;2023-07-08T04:56:50;19;19;
47741;PMS5003;33504;52.066;6.096;2023-07-08T04:59:18;36;36;
47741;PMS5003;33504;52.066;6.096;2023-07-08T05:01:46;35;35;
47741;PMS5003;33504;52.066;6.096;2023-07-08T05:04:14;37;36;
47741;PMS5003;33504;52.066;6.096;2023-07-08T05:06:43;30;29;
47741;PMS5003;33504;52.066;6.096;2023-07-08T05:09:10;25;25;
47741;PMS5003;33504;52.066;6.096;2023-07-08T05:11:38;25;24;
47741;PMS5003;33504;52.066;6.096;2023-07-08T05:14:05;20;19;
47741;PMS5003;33504;52.066;6.096;2023-07-08T05:16:32;19;19;
47741;PMS5003;33504;52.066;6.096;2023-07-08T05:19:01;16;16;
47741;PMS5003;33504;52.066;6.096;2023-07-08T05:21:29;20;20;
47741;PMS5003;33504;52.066;6.096;2023-07-08T05:23:57;18;17;
47741;PMS5003;33504;52.066;6.096;2023-07-08T05:26:23;17;17;
47741;PMS5003;33504;52.066;6.096;2023-07-08T05:28:50;25;24;
47741;PMS5003;33504;52.066;6.096;2023-07-08T05:31:17;19;18;
47741;PMS5003;33504;52.066;6.096;2023-07-08T05:33:44;82;81;
47741;PMS5003;33504;52.066;6.096;2023-07-08T05:36:11;42;42;
47741;PMS5003;33504;52.066;6.096;2023-07-08T05:38:38;31;30;
47741;PMS5003;33504;52.066;6.096;2023-07-08T05:41:06;32;32;
47741;PMS5003;33504;52.066;6.096;2023-07-08T05:43:33;22;22;
47741;PMS5003;33504;52.066;6.096;2023-07-08T05:46:00;19;19;
47741;PMS5003;33504;52.066;6.096;2023-07-08T05:48:28;20;20;
47741;PMS5003;33504;52.066;6.096;2023-07-08T05:50:55;24;24;
47741;PMS5003;33504;52.066;6.096;2023-07-08T05:53:22;27;25;
47741;PMS5003;33504;52.066;6.096;2023-07-08T05:55:49;19;18;
47741;PMS5003;33504;52.066;6.096;2023-07-08T05:58:17;14;14;
47741;PMS5003;33504;52.066;6.096;2023-07-08T06:00:44;16;16;
47741;PMS5003;33504;52.066;6.096;2023-07-08T06:03:12;16;16;
47741;PMS5003;33504;52.066;6.096;2023-07-08T06:05:39;14;14;
47741;PMS5003;33504;52.066;6.096;2023-07-08T06:08:06;17;17;
47741;PMS5003;33504;52.066;6.096;2023-07-08T06:10:33;13;13;
47741;PMS5003;33504;52.066;6.096;2023-07-08T06:13:01;15;15;
47741;PMS5003;33504;52.066;6.096;2023-07-08T06:15:28;15;14;
47741;PMS5003;33504;52.066;6.096;2023-07-08T06:17:55;13;12;
47741;PMS5003;33504;52.066;6.096;2023-07-08T06:20:21;13;13;
47741;PMS5003;33504;52.066;6.096;2023-07-08T06:22:48;14;14;
47741;PMS5003;33504;52.066;6.096;2023-07-08T06:25:15;13;13;
47741;PMS5003;33504;52.066;6.096;2023-07-08T06:27:42;13;13;
47741;PMS5003;33504;52.066;6.096;2023-07-08T06:30:10;11;11;
47741;PMS5003;33504;52.066;6.096;2023-07-08T06:32:37;15;15;
47741;PMS5003;33504;52.066;6.096;2023-07-08T06:35:05;14;14;
47741;PMS5003;33504;52.066;6.096;2023-07-08T06:37:32;13;13;
47741;PMS5003;33504;52.066;6.096;2023-07-08T06:39:59;14;14;
47741;PMS5003;33504;52.066;6.096;2023-07-08T06:42:26;14;13;
47741;PMS5003;33504;52.066;6.096;2023-07-08T06:44:53;12;12;
47741;PMS5003;33504;52.066;6.096;2023-07-08T06:47:21;13;13;
47741;PMS5003;33504;52.066;6.096;2023-07-08T06:49:48;14;14;
47741;PMS5003;33504;52.066;6.096;2023-07-08T06:52:15;12;12;
47741;PMS5003;33504;52.066;6.096;2023-07-08T06:54:42;13;11;
47741;PMS5003;33504;52.066;6.096;2023-07-08T06:57:09;13;11;
47741;PMS5003;33504;52.066;6.096;2023-07-08T06:59:37;11;11;
47741;PMS5003;33504;52.066;6.096;2023-07-08T07:02:05;45;44;
47741;PMS5003;33504;52.066;6.096;2023-07-08T07:04:32;33;32;
47741;PMS5003;33504;52.066;6.096;2023-07-08T07:06:59;22;22;
47741;PMS5003;33504;52.066;6.096;2023-07-08T07:09:25;15;15;
47741;PMS5003;33504;52.066;6.096;2023-07-08T07:11:52;14;14;
47741;PMS5003;33504;52.066;6.096;2023-07-08T07:14:19;13;12;
47741;PMS5003;33504;52.066;6.096;2023-07-08T07:16:46;12;12;
47741;PMS5003;33504;52.066;6.096;2023-07-08T07:19:13;15;15;
47741;PMS5003;33504;52.066;6.096;2023-07-08T07:21:40;12;12;
47741;PMS5003;33504;52.066;6.096;2023-07-08T07:24:07;11;10;
47741;PMS5003;33504;52.066;6.096;2023-07-08T07:26:35;10;10;
47741;PMS5003;33504;52.066;6.096;2023-07-08T07:29:02;10;10;
47741;PMS5003;33504;52.066;6.096;2023-07-08T07:31:30;14;14;
47741;PMS5003;33504;52.066;6.096;2023-07-08T07:33:58;10;10;
47741;PMS5003;33504;52.066;6.096;2023-07-08T07:36:25;10;10;
47741;PMS5003;33504;52.066;6.096;2023-07-08T07:38:53;13;12;
47741;PMS5003;33504;52.066;6.096;2023-07-08T07:41:20;14;13;
47741;PMS5003;33504;52.066;6.096;2023-07-08T07:43:48;13;12;
47741;PMS5003;33504;52.066;6.096;2023-07-08T07:46:15;12;12;
47741;PMS5003;33504;52.066;6.096;2023-07-08T07:48:42;11;11;
47741;PMS5003;33504;52.066;6.096;2023-07-08T07:51:10;13;12;
47741;PMS5003;33504;52.066;6.096;2023-07-08T07:53:37;11;11;
47741;PMS5003;33504;52.066;6.096;2023-07-08T07:56:05;13;13;
47741;PMS5003;33504;52.066;6.096;2023-07-08T07:58:33;11;11;
47741;PMS5003;33504;52.066;6.096;2023-07-08T08:01:00;13;12;
47741;PMS5003;33504;52.066;6.096;2023-07-08T08:03:27;10;10;
47741;PMS5003;33504;52.066;6.096;2023-07-08T08:05:54;9;9;
47741;PMS5003;33504;52.066;6.096;2023-07-08T08:08:21;9;9;
47741;PMS5003;33504;52.066;6.096;2023-07-08T08:10:49;9;9;
47741;PMS5003;33504;52.066;6.096;2023-07-08T08:13:16;12;11;
47741;PMS5003;33504;52.066;6.096;2023-07-08T08:15:43;16;16;
47741;PMS5003;33504;52.066;6.096;2023-07-08T08:18:10;14;13;
47741;PMS5003;33504;52.066;6.096;2023-07-08T08:20:38;13;13;
47741;PMS5003;33504;52.066;6.096;2023-07-08T08:23:05;9;9;
47741;PMS5003;33504;52.066;6.096;2023-07-08T08:25:32;12;12;
47741;PMS5003;33504;52.066;6.096;2023-07-08T08:28:00;11;10;
47741;PMS5003;33504;52.066;6.096;2023-07-08T08:30:27;11;10;
47741;PMS5003;33504;52.066;6.096;2023-07-08T08:32:54;10;10;
47741;PMS5003;33504;52.066;6.096;2023-07-08T08:35:22;10;10;
47741;PMS5003;33504;52.066;6.096;2023-07-08T08:37:49;10;10;
47741;PMS5003;33504;52.066;6.096;2023-07-08T08:40:17;12;12;
47741;PMS5003;33504;52.066;6.096;2023-07-08T08:42:46;11;11;
47741;PMS5003;33504;52.066;6.096;2023-07-08T08:45:19;11;11;
47741;PMS5003;33504;52.066;6.096;2023-07-08T08:47:48;13;12;
47741;PMS5003;33504;52.066;6.096;2023-07-08T08:50:23;11;10;
47741;PMS5003;33504;52.066;6.096;2023-07-08T08:52:54;11;10;
47741;PMS5003;33504;52.066;6.096;2023-07-08T08:55:23;15;12;
47741;PMS5003;33504;52.066;6.096;2023-07-08T08:57:53;11;11;
47741;PMS5003;33504;52.066;6.096;2023-07-08T09:00:28;13;13;
47741;PMS5003;33504;52.066;6.096;2023-07-08T09:03:04;9;8;
47741;PMS5003;33504;52.066;6.096;2023-07-08T09:05:37;11;11;
47741;PMS5003;33504;52.066;6.096;2023-07-08T09:08:05;11;11;
47741;PMS5003;33504;52.066;6.096;2023-07-08T09:10:42;9;9;
47741;PMS5003;33504;52.066;6.096;2023-07-08T09:13:15;11;10;
47741;PMS5003;33504;52.066;6.096;2023-07-08T09:15:48;10;10;
47741;PMS5003;33504;52.066;6.096;2023-07-08T09:18:20;11;11;
47741;PMS5003;33504;52.066;6.096;2023-07-08T09:20:54;13;12;
47741;PMS5003;33504;52.066;6.096;2023-07-08T09:23:25;11;10;
47741;PMS5003;33504;52.066;6.096;2023-07-08T09:25:56;14;14;
47741;PMS5003;33504;52.066;6.096;2023-07-08T09:28:36;12;12;
47741;PMS5003;33504;52.066;6.096;2023-07-08T09:31:05;11;11;
47741;PMS5003;33504;52.066;6.096;2023-07-08T09:33:34;13;13;
47741;PMS5003;33504;52.066;6.096;2023-07-08T09:36:15;12;12;
47741;PMS5003;33504;52.066;6.096;2023-07-08T09:38:47;13;13;
47741;PMS5003;33504;52.066;6.096;2023-07-08T09:41:17;11;11;
47741;PMS5003;33504;52.066;6.096;2023-07-08T09:44:04;10;9;
47741;PMS5003;33504;52.066;6.096;2023-07-08T09:46:39;10;10;
47741;PMS5003;33504;52.066;6.096;2023-07-08T09:49:13;11;11;
47741;PMS5003;33504;52.066;6.096;2023-07-08T09:51:44;14;13;
47741;PMS5003;33504;52.066;6.096;2023-07-08T09:54:11;13;13;
47741;PMS5003;33504;52.066;6.096;2023-07-08T09:56:40;10;10;
47741;PMS5003;33504;52.066;6.096;2023-07-08T09:59:11;13;11;
47741;PMS5003;33504;52.066;6.096;2023-07-08T10:01:40;13;12;
47741;PMS5003;33504;52.066;6.096;2023-07-08T10:04:09;13;13;
47741;PMS5003;33504;52.066;6.096;2023-07-08T10:06:38;15;14;
47741;PMS5003;33504;52.066;6.096;2023-07-08T10:09:08;11;11;
47741;PMS5003;33504;52.066;6.096;2023-07-08T10:11:39;14;14;
47741;PMS5003;33504;52.066;6.096;2023-07-08T10:14:15;12;12;
47741;PMS5003;33504;52.066;6.096;2023-07-08T10:16:49;11;11;
47741;PMS5003;33504;52.066;6.096;2023-07-08T10:19:17;12;12;
47741;PMS5003;33504;52.066;6.096;2023-07-08T10:21:48;11;11;
47741;PMS5003;33504;52.066;6.096;2023-07-08T10:24:26;11;11;
47741;PMS5003;33504;52.066;6.096;2023-07-08T10:27:04;17;15;
47741;PMS5003;33504;52.066;6.096;2023-07-08T10:29:41;12;12;
47741;PMS5003;33504;52.066;6.096;2023-07-08T10:32:16;14;13;
47741;PMS5003;33504;52.066;6.096;2023-07-08T10:34:52;13;12;
47741;PMS5003;33504;52.066;6.096;2023-07-08T10:37:28;14;14;
47741;PMS5003;33504;52.066;6.096;2023-07-08T10:40:10;12;12;
47741;PMS5003;33504;52.066;6.096;2023-07-08T10:42:50;13;13;
47741;PMS5003;33504;52.066;6.096;2023-07-08T10:45:29;11;11;
47741;PMS5003;33504;52.066;6.096;2023-07-08T10:48:07;12;12;
47741;PMS5003;33504;52.066;6.096;2023-07-08T10:50:52;11;11;
47741;PMS5003;33504;52.066;6.096;2023-07-08T10:53:36;16;14;
47741;PMS5003;33504;52.066;6.096;2023-07-08T10:56:15;15;15;
47741;PMS5003;33504;52.066;6.096;2023-07-08T10:58:51;12;12;
47741;PMS5003;33504;52.066;6.096;2023-07-08T11:01:29;15;15;
47741;PMS5003;33504;52.066;6.096;2023-07-08T11:04:09;19;19;
47741;PMS5003;33504;52.066;6.096;2023-07-08T11:06:48;15;15;
47741;PMS5003;33504;52.066;6.096;2023-07-08T11:09:21;14;13;
47741;PMS5003;33504;52.066;6.096;2023-07-08T11:11:53;10;10;
47741;PMS5003;33504;52.066;6.096;2023-07-08T11:14:26;13;12;
47741;PMS5003;33504;52.066;6.096;2023-07-08T11:17:11;12;12;
47741;PMS5003;33504;52.066;6.096;2023-07-08T11:19:44;13;13;
47741;PMS5003;33504;52.066;6.096;2023-07-08T11:22:15;14;13;
47741;PMS5003;33504;52.066;6.096;2023-07-08T11:24:44;13;13;
47741;PMS5003;33504;52.066;6.096;2023-07-08T11:27:15;12;11;
47741;PMS5003;33504;52.066;6.096;2023-07-08T11:29:46;13;13;
47741;PMS5003;33504;52.066;6.096;2023-07-08T11:32:19;12;12;
47741;PMS5003;33504;52.066;6.096;2023-07-08T11:34:50;13;13;
47741;PMS5003;33504;52.066;6.096;2023-07-08T11:37:19;10;10;
47741;PMS5003;33504;52.066;6.096;2023-07-08T11:39:53;12;12;
47741;PMS5003;33504;52.066;6.096;2023-07-08T11:42:34;;13;
47741;PMS5003;33504;52.066;6.096;2023-07-08T11:45:05;12;12;
47741;PMS5003;33504;52.066;6.096;2023-07-08T11:47:50;10;10;
47741;PMS5003;33504;52.066;6.096;2023-07-08T11:50:19;12;12;
47741;PMS5003;33504;52.066;6.096;2023-07-08T11:52:52;10;10;
47741;PMS5003;33504;52.066;6.096;2023-07-08T11:55:22;12;12;
47741;PMS5003;33504;52.066;6.096;2023-07-08T11:57:52;11;10;
47741;PMS5003;33504;52.066;6.096;2023-07-08T12:00:22;12;12;
47741;PMS5003;33504;52.066;6.096;2023-07-08T12:02:52;12;12;
47741;PMS5003;33504;52.066;6.096;2023-07-08T12:05:29;16;16;
47741;PMS5003;33504;52.066;6.096;2023-07-08T12:07:58;10;10;
47741;PMS5003;33504;52.066;6.096;2023-07-08T12:10:27;13;13;
47741;PMS5003;33504;52.066;6.096;2023-07-08T12:12:57;14;13;
47741;PMS5003;33504;52.066;6.096;2023-07-08T12:15:25;13;12;
47741;PMS5003;33504;52.066;6.096;2023-07-08T12:17:55;12;12;
47741;PMS5003;33504;52.066;6.096;2023-07-08T12:20:27;10;10;
47741;PMS5003;33504;52.066;6.096;2023-07-08T12:22:57;12;12;
47741;PMS5003;33504;52.066;6.096;2023-07-08T12:25:25;12;11;
47741;PMS5003;33504;52.066;6.096;2023-07-08T12:27:54;13;13;
47741;PMS5003;33504;52.066;6.096;2023-07-08T12:30:21;15;15;
47741;PMS5003;33504;52.066;6.096;2023-07-08T12:32:48;15;15;
47741;PMS5003;33504;52.066;6.096;2023-07-08T12:35:19;13;12;
47741;PMS5003;33504;52.066;6.096;2023-07-08T12:37:50;14;13;
47741;PMS5003;33504;52.066;6.096;2023-07-08T12:40:20;13;13;
47741;PMS5003;33504;52.066;6.096;2023-07-08T12:42:48;13;13;
47741;PMS5003;33504;52.066;6.096;2023-07-08T12:45:16;15;14;
47741;PMS5003;33504;52.066;6.096;2023-07-08T12:47:45;12;11;
47741;PMS5003;33504;52.066;6.096;2023-07-08T12:50:13;17;17;
47741;PMS5003;33504;52.066;6.096;2023-07-08T12:52:42;14;14;
47741;PMS5003;33504;52.066;6.096;2023-07-08T12:55:11;10;10;
47741;PMS5003;33504;52.066;6.096;2023-07-08T12:57:39;12;12;
47741;PMS5003;33504;52.066;6.096;2023-07-08T13:00:12;12;12;
47741;PMS5003;33504;52.066;6.096;2023-07-08T13:02:46;15;15;
47741;PMS5003;33504;52.066;6.096;2023-07-08T13:05:16;12;12;
47741;PMS5003;33504;52.066;6.096;2023-07-08T13:07:43;12;12;
47741;PMS5003;33504;52.066;6.096;2023-07-08T13:10:16;13;13;
47741;PMS5003;33504;52.066;6.096;2023-07-08T13:12:45;10;10;
47741;PMS5003;33504;52.066;6.096;2023-07-08T13:15:17;12;12;
47741;PMS5003;33504;52.066;6.096;2023-07-08T13:17:48;12;12;
47741;PMS5003;33504;52.066;6.096;2023-07-08T13:22:54;18;16;
47741;PMS5003;33504;52.066;6.096;2023-07-08T13:25:25;13;12;
47741;PMS5003;33504;52.066;6.096;2023-07-08T13:27:55;11;11;
47741;PMS5003;33504;52.066;6.096;2023-07-08T13:30:25;13;13;
47741;PMS5003;33504;52.066;6.096;2023-07-08T13:32:54;14;13;
47741;PMS5003;33504;52.066;6.096;2023-07-08T13:35:24;13;12;
47741;PMS5003;33504;52.066;6.096;2023-07-08T13:37:53;13;12;
47741;PMS5003;33504;52.066;6.096;2023-07-08T13:40:22;12;12;
47741;PMS5003;33504;52.066;6.096;2023-07-08T13:42:53;13;13;
47741;PMS5003;33504;52.066;6.096;2023-07-08T13:45:22;14;13;
47741;PMS5003;33504;52.066;6.096;2023-07-08T13:48:03;13;13;
47741;PMS5003;33504;52.066;6.096;2023-07-08T13:50:43;12;12;
47741;PMS5003;33504;52.066;6.096;2023-07-08T13:53:16;10;10;
47741;PMS5003;33504;52.066;6.096;2023-07-08T13:55:45;13;13;
47741;PMS5003;33504;52.066;6.096;2023-07-08T13:58:15;12;11;
47741;PMS5003;33504;52.066;6.096;2023-07-08T14:00:44;11;11;
47741;PMS5003;33504;52.066;6.096;2023-07-08T14:03:11;13;12;
47741;PMS5003;33504;52.066;6.096;2023-07-08T14:05:43;11;11;
47741;PMS5003;33504;52.066;6.096;2023-07-08T14:08:12;13;12;
47741;PMS5003;33504;52.066;6.096;2023-07-08T14:10:41;12;12;
47741;PMS5003;33504;52.066;6.096;2023-07-08T14:13:09;12;12;
47741;PMS5003;33504;52.066;6.096;2023-07-08T14:15:37;13;13;
47741;PMS5003;33504;52.066;6.096;2023-07-08T14:18:05;12;12;
47741;PMS5003;33504;52.066;6.096;2023-07-08T14:20:32;12;11;
47741;PMS5003;33504;52.066;6.096;2023-07-08T14:22:59;12;12;
47741;PMS5003;33504;52.066;6.096;2023-07-08T14:25:26;13;13;
47741;PMS5003;33504;52.066;6.096;2023-07-08T14:27:53;12;12;
47741;PMS5003;33504;52.066;6.096;2023-07-08T14:30:20;12;12;
47741;PMS5003;33504;52.066;6.096;2023-07-08T14:32:47;13;13;
47741;PMS5003;33504;52.066;6.096;2023-07-08T14:35:17;15;14;
47741;PMS5003;33504;52.066;6.096;2023-07-08T14:37:45;13;13;
47741;PMS5003;33504;52.066;6.096;2023-07-08T14:40:24;10;10;
47741;PMS5003;33504;52.066;6.096;2023-07-08T14:42:56;14;14;
47741;PMS5003;33504;52.066;6.096;2023-07-08T14:45:26;11;11;
47741;PMS5003;33504;52.066;6.096;2023-07-08T14:47:55;12;12;
47741;PMS5003;33504;52.066;6.096;2023-07-08T14:50:23;13;13;
47741;PMS5003;33504;52.066;6.096;2023-07-08T14:52:50;12;12;
47741;PMS5003;33504;52.066;6.096;2023-07-08T14:55:17;11;11;
47741;PMS5003;33504;52.066;6.096;2023-07-08T14:57:45;15;15;
47741;PMS5003;33504;52.066;6.096;2023-07-08T15:00:15;16;15;
47741;PMS5003;33504;52.066;6.096;2023-07-08T15:02:45;13;13;
47741;PMS5003;33504;52.066;6.096;2023-07-08T15:05:15;14;13;
47741;PMS5003;33504;52.066;6.096;2023-07-08T15:07:44;12;11;
47741;PMS5003;33504;52.066;6.096;2023-07-08T15:10:15;12;12;
47741;PMS5003;33504;52.066;6.096;2023-07-08T15:12:42;15;14;
47741;PMS5003;33504;52.066;6.096;2023-07-08T15:15:13;14;13;
47741;PMS5003;33504;52.066;6.096;2023-07-08T15:17:42;11;11;
47741;PMS5003;33504;52.066;6.096;2023-07-08T15:20:10;11;11;
47741;PMS5003;33504;52.066;6.096;2023-07-08T15:22:39;12;12;
47741;PMS5003;33504;52.066;6.096;2023-07-08T15:25:06;10;10;
47741;PMS5003;33504;52.066;6.096;2023-07-08T15:27:35;10;10;
47741;PMS5003;33504;52.066;6.096;2023-07-08T15:30:02;12;10;
47741;PMS5003;33504;52.066;6.096;2023-07-08T15:32:30;13;13;
47741;PMS5003;33504;52.066;6.096;2023-07-08T15:34:57;17;15;
47741;PMS5003;33504;52.066;6.096;2023-07-08T15:37:25;13;13;
47741;PMS5003;33504;52.066;6.096;2023-07-08T15:39:51;19;19;
47741;PMS5003;33504;52.066;6.096;2023-07-08T15:42:18;18;18;
47741;PMS5003;33504;52.066;6.096;2023-07-08T15:44:45;20;20;
47741;PMS5003;33504;52.066;6.096;2023-07-08T15:47:13;26;26;
47741;PMS5003;33504;52.066;6.096;2023-07-08T15:49:40;18;18;
47741;PMS5003;33504;52.066;6.096;2023-07-08T15:52:07;21;20;
47741;PMS5003;33504;52.066;6.096;2023-07-08T15:54:36;15;14;
47741;PMS5003;33504;52.066;6.096;2023-07-08T15:57:04;13;13;
47741;PMS5003;33504;52.066;6.096;2023-07-08T15:59:36;12;12;
47741;PMS5003;33504;52.066;6.096;2023-07-08T16:02:05;11;11;
47741;PMS5003;33504;52.066;6.096;2023-07-08T16:04:46;12;10;
47741;PMS5003;33504;52.066;6.096;2023-07-08T16:07:13;12;12;
47741;PMS5003;33504;52.066;6.096;2023-07-08T16:09:40;14;13;
47741;PMS5003;33504;52.066;6.096;2023-07-08T16:12:08;10;10;
47741;PMS5003;33504;52.066;6.096;2023-07-08T16:14:37;12;12;
47741;PMS5003;33504;52.066;6.096;2023-07-08T16:17:07;13;13;
47741;PMS5003;33504;52.066;6.096;2023-07-08T16:19:35;10;10;
47741;PMS5003;33504;52.066;6.096;2023-07-08T16:22:03;15;15;
47741;PMS5003;33504;52.066;6.096;2023-07-08T16:24:30;20;19;
47741;PMS5003;33504;52.066;6.096;2023-07-08T16:26:57;20;17;
47741;PMS5003;33504;52.066;6.096;2023-07-08T16:29:25;25;25;
47741;PMS5003;33504;52.066;6.096;2023-07-08T16:31:53;21;20;
47741;PMS5003;33504;52.066;6.096;2023-07-08T16:34:20;11;11;